Time;durP1;ratioP1;P1;durP2;ratioP2;P2;SDS_P1;SDS_P2;PMS_P1;PMS_P2;Temp;Humidity;BMP_temperature;BMP_pressure;BME280_temperature;BME280_humidity;BME280_pressure;Samples;Min_cycle;Max_cycle;Signal;HPM_P1;HPM_P2
2022/07/28 00:02:59;;;;;;;1.95;1.60;;;;;;;;;;12547405;28;20049;-77
2022/07/28 00:09:01;;;;;;;1.83;1.73;;;;;;;;;;12547999;28;20037;-78
2022/07/28 00:15:03;;;;;;;1.85;1.63;;;;;;;;;;12549665;28;20071;-81
2022/07/28 00:21:05;;;;;;;2.00;1.90;;;;;;;;;;12546233;28;20037;-81
2022/07/28 00:27:07;;;;;;;1.92;1.80;;;;;;;;;;12546542;28;20033;-80
2022/07/28 00:33:08;;;;;;;2.42;2.10;;;;;;;;;;12549440;28;20484;-80
2022/07/28 00:39:10;;;;;;;1.80;1.70;;;;;;;;;;12545667;28;20037;-80
2022/07/28 00:45:12;;;;;;;2.45;1.50;;;;;;;;;;12547106;28;20057;-80
2022/07/28 00:51:17;;;;;;;1.80;1.70;;;;;;;;;;12547181;28;20510;-76
2022/07/28 00:57:20;;;;;;;1.63;1.52;;;;;;;;;;12550233;28;20032;-80
2022/07/28 01:03:22;;;;;;;2.45;1.80;;;;;;;;;;12544967;28;20067;-76
2022/07/28 01:09:33;;;;;;;1.50;1.40;;;;;;;;;;12544995;28;20033;-76
2022/07/28 01:15:42;;;;;;;1.52;1.42;;;;;;;;;;12545203;28;20503;-75
2022/07/28 01:21:45;;;;;;;1.40;1.30;;;;;;;;;;12545792;28;20298;-76
2022/07/28 01:28:06;;;;;;;1.55;1.27;;;;;;;;;;12546370;28;20056;-76
2022/07/28 01:34:10;;;;;;;1.52;1.00;;;;;;;;;;12552231;28;20384;-76
2022/07/28 01:40:14;;;;;;;1.35;1.25;;;;;;;;;;12555982;28;20049;-80
2022/07/28 01:46:17;;;;;;;1.00;1.00;;;;;;;;;;12554094;28;20037;-76
2022/07/28 01:52:19;;;;;;;0.80;0.80;;;;;;;;;;12553890;28;20032;-76
2022/07/28 01:58:22;;;;;;;1.13;0.95;;;;;;;;;;12553317;28;20029;-76
2022/07/28 02:04:25;;;;;;;1.02;0.73;;;;;;;;;;12554111;28;20045;-81
2022/07/28 02:10:28;;;;;;;1.05;0.70;;;;;;;;;;12554405;28;20033;-76
2022/07/28 02:16:30;;;;;;;1.02;0.90;;;;;;;;;;12555270;28;20029;-76
2022/07/28 02:22:32;;;;;;;1.38;0.80;;;;;;;;;;12551658;28;20120;-80
2022/07/28 02:28:34;;;;;;;0.85;0.85;;;;;;;;;;12552777;28;20500;-80
2022/07/28 02:34:37;;;;;;;0.88;0.80;;;;;;;;;;12553746;28;20044;-80
2022/07/28 02:40:40;;;;;;;0.75;0.75;;;;;;;;;;12551373;28;20056;-80
2022/07/28 02:46:44;;;;;;;0.60;0.60;;;;;;;;;;12552248;28;20033;-77
2022/07/28 02:52:46;;;;;;;0.75;0.75;;;;;;;;;;12556187;28;20041;-77
2022/07/28 02:58:48;;;;;;;1.00;1.00;;;;;;;;;;12555633;28;20049;-78
2022/07/28 03:04:57;;;;;;;0.82;0.82;;;;;;;;;;12552158;28;20032;-77
2022/07/28 03:11:06;;;;;;;0.80;0.80;;;;;;;;;;12552241;28;20468;-77
2022/07/28 03:17:08;;;;;;;1.40;0.73;;;;;;;;;;12550022;28;20051;-77
2022/07/28 03:23:09;;;;;;;0.80;0.70;;;;;;;;;;12550424;28;20051;-77
2022/07/28 03:29:11;;;;;;;1.20;0.90;;;;;;;;;;12554225;28;20041;-77
2022/07/28 03:35:14;;;;;;;0.88;0.80;;;;;;;;;;12548861;28;20055;-77
2022/07/28 03:41:16;;;;;;;1.23;0.80;;;;;;;;;;12549514;28;20071;-77
2022/07/28 03:47:21;;;;;;;1.02;0.90;;;;;;;;;;12548814;28;20032;-76
2022/07/28 03:53:24;;;;;;;1.08;0.98;;;;;;;;;;12547353;28;20040;-76
2022/07/28 03:59:26;;;;;;;1.33;0.77;;;;;;;;;;12547763;28;20033;-76
2022/07/28 04:05:28;;;;;;;0.90;0.80;;;;;;;;;;12547783;28;20040;-76
2022/07/28 04:11:29;;;;;;;0.85;0.85;;;;;;;;;;12553485;28;20040;-80
2022/07/28 04:17:31;;;;;;;1.58;0.95;;;;;;;;;;12547164;28;20047;-81
2022/07/28 04:23:33;;;;;;;1.55;1.30;;;;;;;;;;12549219;28;20048;-75
2022/07/28 04:29:35;;;;;;;1.13;1.08;;;;;;;;;;12545632;28;20029;-79
2022/07/28 04:35:36;;;;;;;2.58;1.02;;;;;;;;;;12546865;28;20037;-79
2022/07/28 04:41:40;;;;;;;;;;;;;;;;;;12546221;28;20053;-76
2022/07/28 04:47:42;;;;;;;1.25;1.15;;;;;;;;;;12546161;28;19920;-74
2022/07/28 04:53:43;;;;;;;1.50;1.40;;;;;;;;;;12546542;28;20037;-80
2022/07/28 04:59:45;;;;;;;1.25;1.15;;;;;;;;;;12546287;28;20033;-79
2022/07/28 05:05:48;;;;;;;1.50;1.00;;;;;;;;;;12544903;28;20060;-75
2022/07/28 05:11:49;;;;;;;1.10;1.10;;;;;;;;;;12546528;28;20052;-76
2022/07/28 05:17:51;;;;;;;1.67;1.20;;;;;;;;;;12545710;28;20210;-76
2022/07/28 05:23:53;;;;;;;1.10;1.00;;;;;;;;;;12544768;28;20412;-76
2022/07/28 05:29:54;;;;;;;2.30;1.80;;;;;;;;;;12543527;28;20036;-76
2022/07/28 05:35:56;;;;;;;3.15;2.47;;;;;;;;;;12545000;28;20063;-80
2022/07/28 05:41:58;;;;;;;2.40;2.20;;;;;;;;;;12543323;28;20501;-80
2022/07/28 05:48:00;;;;;;;2.53;2.33;;;;;;;;;;12544637;28;20056;-80
2022/07/28 05:54:02;;;;;;;2.80;2.60;;;;;;;;;;12543052;28;20041;-76
2022/07/28 06:00:05;;;;;;;2.50;2.35;;;;;;;;;;12543994;28;20037;-76
2022/07/28 06:06:13;;;;;;;2.13;1.98;;;;;;;;;;12544340;28;20439;-76
2022/07/28 06:12:14;;;;;;;2.50;2.30;;;;;;;;;;12543242;28;20063;-81
2022/07/28 06:18:16;;;;;;;2.90;2.70;;;;;;;;;;12547847;28;20032;-77
2022/07/28 06:24:18;;;;;;;3.40;2.30;;;;;;;;;;12552135;28;20049;-77
2022/07/28 06:30:20;;;;;;;2.47;2.28;;;;;;;;;;12552346;28;20408;-79
2022/07/28 06:36:22;;;;;;;3.25;2.95;;;;;;;;;;12551477;28;20037;-76
2022/07/28 06:42:24;;;;;;;2.50;2.30;;;;;;;;;;12551661;28;20072;-76
2022/07/28 06:48:26;;;;;;;4.10;3.38;;;;;;;;;;12550646;28;20029;-80
2022/07/28 06:54:28;;;;;;;2.92;2.72;;;;;;;;;;12551811;28;20057;-77
2022/07/28 07:00:29;;;;;;;3.67;3.38;;;;;;;;;;12551124;28;20045;-79
2022/07/28 07:06:31;;;;;;;3.00;2.80;;;;;;;;;;12551543;28;20040;-76
2022/07/28 07:12:33;;;;;;;3.05;2.50;;;;;;;;;;12550500;28;20037;-75
2022/07/28 07:18:35;;;;;;;3.72;3.30;;;;;;;;;;12550796;28;20033;-76
2022/07/28 07:24:37;;;;;;;4.15;3.75;;;;;;;;;;12551435;28;20044;-80
2022/07/28 07:30:38;;;;;;;6.35;4.38;;;;;;;;;;12547597;28;20370;-77
2022/07/28 07:36:40;;;;;;;4.75;3.75;;;;;;;;;;12549772;28;20025;-75
2022/07/28 07:42:42;;;;;;;3.63;3.10;;;;;;;;;;12549835;28;20390;-80
2022/07/28 07:48:44;;;;;;;3.80;2.67;;;;;;;;;;12549982;28;20037;-76
2022/07/28 07:54:45;;;;;;;3.78;3.40;;;;;;;;;;12548787;28;20044;-76
2022/07/28 08:00:47;;;;;;;3.33;2.65;;;;;;;;;;12547154;28;20029;-76
2022/07/28 08:06:49;;;;;;;5.82;4.47;;;;;;;;;;12547847;28;20041;-79
2022/07/28 08:12:51;;;;;;;5.78;4.40;;;;;;;;;;12546523;28;20076;-80
2022/07/28 08:18:57;;;;;;;4.55;4.03;;;;;;;;;;12547423;28;20025;-80
2022/07/28 08:25:00;;;;;;;4.35;3.95;;;;;;;;;;12547757;28;20053;-79
2022/07/28 08:31:02;;;;;;;3.95;3.65;;;;;;;;;;12547824;28;20496;-79
2022/07/28 08:37:04;;;;;;;4.00;3.63;;;;;;;;;;12546594;28;20029;-76
2022/07/28 08:43:14;;;;;;;5.43;4.93;;;;;;;;;;12547650;28;20048;-80
2022/07/28 08:49:16;;;;;;;5.17;4.67;;;;;;;;;;12545503;28;20045;-81
2022/07/28 08:55:25;;;;;;;4.70;4.30;;;;;;;;;;12544881;28;20044;-76
2022/07/28 09:01:27;;;;;;;5.30;4.88;;;;;;;;;;12549366;28;20048;-77
2022/07/28 09:07:30;;;;;;;3.75;3.40;;;;;;;;;;12549618;28;20469;-79
2022/07/28 09:13:32;;;;;;;4.28;3.88;;;;;;;;;;12547628;28;20044;-79
2022/07/28 09:19:36;;;;;;;4.75;4.15;;;;;;;;;;12544604;28;20021;-80
2022/07/28 09:25:38;;;;;;;4.93;4.50;;;;;;;;;;12547807;28;20041;-77
2022/07/28 09:31:50;;;;;;;4.32;3.70;;;;;;;;;;12545122;28;20033;-79
2022/07/28 09:37:59;;;;;;;4.20;3.80;;;;;;;;;;12544485;28;20037;-76
2022/07/28 09:44:00;;;;;;;4.43;4.03;;;;;;;;;;12550959;28;20107;-76
2022/07/28 09:50:02;;;;;;;4.38;3.97;;;;;;;;;;12547787;28;20036;-76
2022/07/28 09:56:04;;;;;;;4.40;4.00;;;;;;;;;;12552693;28;20416;-78
2022/07/28 10:02:06;;;;;;;4.57;4.18;;;;;;;;;;12556446;28;20041;-76
2022/07/28 10:08:07;;;;;;;4.20;3.80;;;;;;;;;;12560329;28;20041;-80
2022/07/28 10:14:12;;;;;;;3.95;3.60;;;;;;;;;;12552828;28;20045;-79
2022/07/28 10:20:15;;;;;;;4.15;3.85;;;;;;;;;;12536087;28;20366;-79
2022/07/28 10:26:18;;;;;;;4.15;3.67;;;;;;;;;;12553309;28;20044;-79
2022/07/28 10:32:20;;;;;;;3.72;3.42;;;;;;;;;;12562114;28;20037;-78
2022/07/28 10:38:26;;;;;;;3.15;2.95;;;;;;;;;;12554307;28;20036;-79
2022/07/28 10:44:29;;;;;;;3.97;3.20;;;;;;;;;;12551191;28;20060;-80
2022/07/28 10:50:32;;;;;;;2.78;2.58;;;;;;;;;;12556341;28;20032;-79
2022/07/28 10:56:38;;;;;;;4.38;3.35;;;;;;;;;;12549903;28;20040;-77
2022/07/28 11:02:39;;;;;;;3.17;2.97;;;;;;;;;;12552588;28;20052;-78
2022/07/28 11:08:41;;;;;;;5.15;3.38;;;;;;;;;;12554371;28;20033;-77
2022/07/28 11:14:43;;;;;;;2.78;2.58;;;;;;;;;;12550878;28;20033;-77
2022/07/28 11:20:57;;;;;;;3.15;2.90;;;;;;;;;;12550832;28;20037;-79
2022/07/28 11:26:58;;;;;;;3.83;3.38;;;;;;;;;;12557927;28;20048;-77
2022/07/28 11:33:01;;;;;;;2.85;2.35;;;;;;;;;;12552612;28;20044;-79
2022/07/28 11:39:22;;;;;;;2.45;2.25;;;;;;;;;;12553993;28;20048;-77
2022/07/28 11:45:24;;;;;;;2.50;2.30;;;;;;;;;;12550492;28;20381;-78
2022/07/28 11:51:30;;;;;;;2.78;2.58;;;;;;;;;;12553286;28;20044;-76
2022/07/28 11:57:38;;;;;;;2.25;2.05;;;;;;;;;;12549062;28;20032;-76
2022/07/28 12:03:41;;;;;;;1.45;1.38;;;;;;;;;;12549873;28;20036;-76
2022/07/28 12:09:42;;;;;;;1.98;1.63;;;;;;;;;;12552355;28;20408;-80
2022/07/28 12:15:49;;;;;;;2.10;1.90;;;;;;;;;;12534432;28;20504;-76
2022/07/28 12:21:55;;;;;;;2.63;1.88;;;;;;;;;;12544345;28;20049;-78
2022/07/28 12:27:57;;;;;;;2.03;1.65;;;;;;;;;;12543222;28;20397;-77
2022/07/28 12:33:59;;;;;;;1.98;1.42;;;;;;;;;;12528505;28;20044;-79
2022/07/28 12:40:01;;;;;;;1.70;1.60;;;;;;;;;;12543462;28;20064;-80
2022/07/28 12:46:03;;;;;;;2.65;1.70;;;;;;;;;;12543380;28;20055;-77
2022/07/28 12:52:34;;;;;;;2.03;1.73;;;;;;;;;;12543162;28;20045;-77
2022/07/28 12:58:35;;;;;;;1.65;1.38;;;;;;;;;;12539629;28;20045;-80
2022/07/28 13:04:43;;;;;;;1.60;1.50;;;;;;;;;;12551925;28;20087;-77
2022/07/28 13:10:46;;;;;;;2.97;1.38;;;;;;;;;;12546303;28;20407;-76
2022/07/28 13:16:57;;;;;;;1.90;1.30;;;;;;;;;;12542525;28;20040;-80
2022/07/28 13:22:59;;;;;;;2.92;1.70;;;;;;;;;;12546716;28;20048;-79
2022/07/28 13:29:01;;;;;;;1.73;1.45;;;;;;;;;;12546209;28;20484;-76
2022/07/28 13:35:03;;;;;;;1.67;1.58;;;;;;;;;;12540204;28;20040;-76
2022/07/28 13:41:05;;;;;;;1.90;1.42;;;;;;;;;;12541027;28;20377;-79
2022/07/28 13:47:07;;;;;;;1.65;1.55;;;;;;;;;;12540691;28;20044;-76
2022/07/28 13:53:08;;;;;;;1.40;1.30;;;;;;;;;;12548262;28;20029;-77
2022/07/28 13:59:11;;;;;;;1.60;1.50;;;;;;;;;;12540278;28;20380;-76
2022/07/28 14:05:13;;;;;;;1.48;1.38;;;;;;;;;;12543097;28;20048;-80
2022/07/28 14:11:15;;;;;;;1.95;1.50;;;;;;;;;;12540335;28;20036;-76
2022/07/28 14:17:21;;;;;;;1.88;1.27;;;;;;;;;;12542967;28;20033;-80
2022/07/28 14:23:23;;;;;;;1.60;1.38;;;;;;;;;;12540806;28;20400;-77
2022/07/28 14:29:26;;;;;;;3.10;1.50;;;;;;;;;;12540150;28;20032;-77
2022/07/28 14:35:28;;;;;;;1.60;1.50;;;;;;;;;;12545961;28;20045;-77
2022/07/28 14:41:30;;;;;;;1.40;1.30;;;;;;;;;;12547658;28;20049;-77
2022/07/28 14:47:32;;;;;;;2.75;1.30;;;;;;;;;;12534989;28;20036;-77
2022/07/28 14:53:34;;;;;;;1.50;1.40;;;;;;;;;;12552132;28;20041;-77
2022/07/28 14:59:35;;;;;;;1.38;1.27;;;;;;;;;;12552680;28;20044;-77
2022/07/28 15:05:37;;;;;;;2.50;1.55;;;;;;;;;;12548161;28;20484;-77
2022/07/28 15:11:40;;;;;;;1.35;1.25;;;;;;;;;;12549812;28;20048;-79
2022/07/28 15:17:42;;;;;;;3.55;1.50;;;;;;;;;;12546440;28;20044;-79
2022/07/28 15:23:44;;;;;;;1.00;1.00;;;;;;;;;;12554573;28;20045;-79
2022/07/28 15:29:46;;;;;;;1.40;1.30;;;;;;;;;;12546706;28;20037;-77
2022/07/28 15:35:49;;;;;;;1.40;1.30;;;;;;;;;;12548108;28;20044;-77
2022/07/28 15:41:51;;;;;;;1.40;1.30;;;;;;;;;;12550320;28;20060;-80
2022/07/28 15:47:54;;;;;;;1.20;1.10;;;;;;;;;;12545336;28;20052;-77
2022/07/28 15:53:59;;;;;;;1.30;1.20;;;;;;;;;;12545584;28;20189;-76
2022/07/28 16:00:01;;;;;;;1.10;1.10;;;;;;;;;;12546502;28;20033;-76
2022/07/28 16:06:03;;;;;;;1.40;1.30;;;;;;;;;;12543595;28;20079;-77
2022/07/28 16:12:04;;;;;;;1.55;1.35;;;;;;;;;;12547415;28;20059;-80
2022/07/28 16:18:06;;;;;;;1.23;1.08;;;;;;;;;;12545231;28;20048;-76
2022/07/28 16:24:08;;;;;;;1.65;1.10;;;;;;;;;;12543379;28;20521;-77
2022/07/28 16:30:10;;;;;;;1.30;1.20;;;;;;;;;;12541875;28;20040;-77
2022/07/28 16:36:12;;;;;;;1.23;1.02;;;;;;;;;;12541671;28;20508;-76
2022/07/28 16:42:13;;;;;;;1.05;1.00;;;;;;;;;;12542528;28;20057;-76
2022/07/28 16:48:15;;;;;;;1.23;1.13;;;;;;;;;;12555911;28;20381;-77
2022/07/28 16:54:17;;;;;;;1.05;1.05;;;;;;;;;;12542697;28;20059;-76
2022/07/28 17:00:19;;;;;;;1.00;1.00;;;;;;;;;;12543874;28;20040;-80
2022/07/28 17:06:20;;;;;;;1.58;1.08;;;;;;;;;;12541608;28;20048;-76
2022/07/28 17:12:23;;;;;;;1.60;1.20;;;;;;;;;;12543577;28;20036;-77
2022/07/28 17:18:25;;;;;;;1.83;1.10;;;;;;;;;;12544988;28;20039;-80
2022/07/28 17:24:27;;;;;;;1.95;1.13;;;;;;;;;;12541414;28;20040;-79
2022/07/28 17:30:31;;;;;;;1.92;1.25;;;;;;;;;;12544303;28;20044;-80
2022/07/28 17:36:34;;;;;;;1.08;1.05;;;;;;;;;;12543551;28;20056;-77
2022/07/28 17:42:37;;;;;;;1.30;1.20;;;;;;;;;;12544690;28;20052;-77
2022/07/28 17:48:39;;;;;;;1.40;1.30;;;;;;;;;;12550212;28;20040;-79
2022/07/28 18:01:02;;;;;;;1.60;1.50;;;;;;;;;;12541449;28;20041;-79
2022/07/28 18:07:04;;;;;;;1.13;1.02;;;;;;;;;;12523506;28;20044;-76
2022/07/28 18:13:06;;;;;;;1.30;1.20;;;;;;;;;;12542245;28;20041;-76
2022/07/28 18:19:08;;;;;;;1.15;1.13;;;;;;;;;;12548552;28;20037;-77
2022/07/28 18:25:10;;;;;;;1.30;1.20;;;;;;;;;;12558703;28;20053;-78
2022/07/28 18:31:11;;;;;;;1.40;1.30;;;;;;;;;;12550331;28;20033;-79
2022/07/28 18:37:13;;;;;;;1.35;1.25;;;;;;;;;;12555432;28;20044;-76
2022/07/28 18:43:15;;;;;;;1.52;1.40;;;;;;;;;;12552968;28;20072;-77
2022/07/28 18:49:17;;;;;;;1.55;1.45;;;;;;;;;;12555035;28;20496;-77
2022/07/28 18:55:18;;;;;;;1.40;1.30;;;;;;;;;;12549975;28;20032;-79
2022/07/28 19:01:20;;;;;;;1.55;1.15;;;;;;;;;;12550151;28;20036;-77
2022/07/28 19:07:22;;;;;;;1.88;1.45;;;;;;;;;;12548822;28;20496;-76
2022/07/28 19:13:23;;;;;;;2.10;1.73;;;;;;;;;;12550124;28;20033;-80
2022/07/28 19:19:25;;;;;;;1.60;1.50;;;;;;;;;;12550503;28;20040;-80
2022/07/28 19:25:29;;;;;;;1.48;1.38;;;;;;;;;;12547423;28;20044;-80
2022/07/28 19:31:31;;;;;;;1.63;1.33;;;;;;;;;;12547659;28;20037;-79
2022/07/28 19:37:32;;;;;;;2.50;1.70;;;;;;;;;;12547028;28;20033;-76
2022/07/28 19:43:34;;;;;;;1.40;1.30;;;;;;;;;;12548435;28;20061;-79
2022/07/28 19:49:38;;;;;;;1.70;1.40;;;;;;;;;;12548176;28;20082;-80
2022/07/28 19:55:40;;;;;;;1.70;1.60;;;;;;;;;;12546970;28;20052;-75
2022/07/28 20:01:41;;;;;;;1.38;1.27;;;;;;;;;;12549368;28;20025;-80
2022/07/28 20:07:44;;;;;;;1.35;1.25;;;;;;;;;;12555644;28;20519;-80
2022/07/28 20:13:48;;;;;;;2.00;1.42;;;;;;;;;;12551410;28;20036;-76
2022/07/28 20:19:50;;;;;;;1.58;1.23;;;;;;;;;;12546135;28;20033;-79
2022/07/28 20:25:51;;;;;;;1.70;1.52;;;;;;;;;;12545198;28;20055;-79
2022/07/28 20:31:53;;;;;;;1.88;1.20;;;;;;;;;;12550851;28;20392;-76
2022/07/28 20:37:55;;;;;;;1.83;1.20;;;;;;;;;;12551226;28;20048;-76
2022/07/28 20:43:56;;;;;;;1.50;1.40;;;;;;;;;;12546031;28;20527;-75
2022/07/28 20:49:58;;;;;;;1.17;1.13;;;;;;;;;;12546539;28;20044;-79
2022/07/28 20:56:00;;;;;;;1.73;1.48;;;;;;;;;;12544797;28;20028;-80
2022/07/28 21:02:02;;;;;;;1.65;1.55;;;;;;;;;;12552643;28;20385;-80
2022/07/28 21:08:04;;;;;;;1.48;1.25;;;;;;;;;;12547464;28;20037;-75
2022/07/28 21:14:06;;;;;;;1.23;1.13;;;;;;;;;;12546246;28;20531;-80
2022/07/28 21:20:08;;;;;;;1.92;1.20;;;;;;;;;;12548281;28;20472;-79
2022/07/28 21:26:11;;;;;;;1.50;1.40;;;;;;;;;;12546189;28;20037;-78
2022/07/28 21:32:12;;;;;;;1.55;1.45;;;;;;;;;;12550479;28;20036;-76
2022/07/28 21:38:14;;;;;;;2.38;1.40;;;;;;;;;;12545572;28;20037;-76
2022/07/28 21:44:16;;;;;;;1.52;1.42;;;;;;;;;;12547962;28;20400;-78
2022/07/28 21:50:18;;;;;;;1.77;1.67;;;;;;;;;;12552333;28;20477;-80
2022/07/28 21:56:20;;;;;;;1.85;1.75;;;;;;;;;;12561493;28;20063;-79
2022/07/28 22:02:22;;;;;;;1.95;1.65;;;;;;;;;;12554821;28;20530;-76
2022/07/28 22:08:23;;;;;;;1.80;1.70;;;;;;;;;;12553547;28;20037;-76
2022/07/28 22:14:30;;;;;;;1.73;1.63;;;;;;;;;;12555767;28;20048;-79
2022/07/28 22:20:32;;;;;;;2.75;1.75;;;;;;;;;;12557510;28;20041;-80
2022/07/28 22:26:34;;;;;;;1.88;1.77;;;;;;;;;;12553026;28;20048;-79
2022/07/28 22:32:35;;;;;;;1.50;1.40;;;;;;;;;;12553772;28;20021;-76
2022/07/28 22:38:37;;;;;;;2.22;2.03;;;;;;;;;;12556250;28;20037;-76
2022/07/28 22:44:39;;;;;;;2.03;1.63;;;;;;;;;;12552864;28;20063;-79
2022/07/28 22:50:41;;;;;;;2.08;1.98;;;;;;;;;;12550348;28;20480;-76
2022/07/28 22:56:43;;;;;;;2.22;1.98;;;;;;;;;;12552508;28;20033;-77
2022/07/28 23:02:44;;;;;;;2.08;1.88;;;;;;;;;;12553261;28;20432;-76
2022/07/28 23:08:46;;;;;;;2.13;1.90;;;;;;;;;;12547500;28;20036;-76
2022/07/28 23:14:48;;;;;;;2.70;1.85;;;;;;;;;;12549513;28;20040;-76
2022/07/28 23:20:50;;;;;;;2.50;2.30;;;;;;;;;;12551969;28;20037;-80
2022/07/28 23:26:51;;;;;;;2.13;2.00;;;;;;;;;;12548683;28;20049;-76
2022/07/28 23:32:53;;;;;;;2.50;2.30;;;;;;;;;;12546874;28;20038;-75
2022/07/28 23:38:55;;;;;;;2.67;2.20;;;;;;;;;;12546608;28;20045;-76
2022/07/28 23:44:57;;;;;;;3.72;2.33;;;;;;;;;;12500974;28;1360575;-80
2022/07/28 23:50:59;;;;;;;3.55;2.75;;;;;;;;;;12552473;28;20048;-75
2022/07/28 23:57:01;;;;;;;3.30;3.10;;;;;;;;;;12548837;28;20029;-76
